Time;durP1;ratioP1;P1;durP2;ratioP2;P2;SDS_P1;SDS_P2;PMS_P1;PMS_P2;Temp;Humidity;BMP_temperature;BMP_pressure;BME280_temperature;BME280_humidity;BME280_pressure;Samples;Min_cycle;Max_cycle;Signal;HPM_P1;HPM_P2
2023/06/03 00:01:21;;;;;;;;;8.50;7.25;;;;;;;;4946915;28;45510;-68
2023/06/03 00:03:47;;;;;;;;;9.25;7.50;;;;;;;;4946764;28;45399;-69
2023/06/03 00:06:12;;;;;;;;;9.00;8.00;;;;;;;;4945129;28;45365;-68
2023/06/03 00:08:38;;;;;;;;;9.25;6.50;;;;;;;;4947196;28;45608;-68
2023/06/03 00:11:04;;;;;;;;;8.25;7.25;;;;;;;;4943011;28;48048;-72
2023/06/03 00:13:29;;;;;;;;;8.00;8.00;;;;;;;;4946951;28;45477;-70
2023/06/03 00:15:55;;;;;;;;;9.75;9.00;;;;;;;;4946807;28;45497;-70
2023/06/03 00:18:20;;;;;;;;;9.00;8.00;;;;;;;;4945465;28;45516;-71
2023/06/03 00:20:47;;;;;;;;;10.50;9.00;;;;;;;;4947746;28;45535;-70
2023/06/03 00:23:16;;;;;;;;;8.25;8.00;;;;;;;;4947837;28;45503;-70
2023/06/03 00:25:42;;;;;;;;;8.25;6.25;;;;;;;;4945295;28;45383;-70
2023/06/03 00:28:08;;;;;;;;;9.25;9.25;;;;;;;;4945481;28;45534;-70
2023/06/03 00:30:33;;;;;;;;;9.75;7.50;;;;;;;;4948123;28;45924;-68
2023/06/03 00:32:59;;;;;;;;;9.00;8.75;;;;;;;;4944484;28;45310;-68
2023/06/03 00:35:24;;;;;;;;;9.75;8.50;;;;;;;;4943835;28;45570;-68
2023/06/03 00:37:50;;;;;;;;;12.75;8.00;;;;;;;;4945583;28;45477;-68
2023/06/03 00:40:15;;;;;;;;;12.75;12.75;;;;;;;;4946241;28;47296;-68
2023/06/03 00:42:40;;;;;;;;;13.50;11.00;;;;;;;;4944084;28;45479;-68
2023/06/03 00:45:06;;;;;;;;;13.75;9.75;;;;;;;;4948117;28;45344;-68
2023/06/03 00:47:31;;;;;;;;;11.50;9.75;;;;;;;;4945639;28;45564;-68
2023/06/03 00:49:56;;;;;;;;;9.25;9.25;;;;;;;;4944863;28;46059;-68
2023/06/03 00:52:23;;;;;;;;;10.75;10.75;;;;;;;;4945538;28;45474;-68
2023/06/03 00:54:49;;;;;;;;;10.00;8.25;;;;;;;;4942137;28;45984;-68
2023/06/03 00:57:15;;;;;;;;;10.75;10.75;;;;;;;;4945458;28;45369;-68
2023/06/03 00:59:42;;;;;;;;;11.75;10.75;;;;;;;;4944089;28;45393;-68
2023/06/03 01:02:07;;;;;;;;;11.25;11.00;;;;;;;;4944698;28;45556;-68
2023/06/03 01:04:32;;;;;;;;;10.75;8.50;;;;;;;;4946099;28;45393;-68
2023/06/03 01:07:10;;;;;;;;;9.50;9.50;;;;;;;;4949143;28;45389;-69
2023/06/03 01:09:50;;;;;;;;;9.50;9.50;;;;;;;;4946872;28;46136;-69
2023/06/03 01:12:35;;;;;;;;;10.75;10.25;;;;;;;;4946821;28;45478;-68
2023/06/03 01:15:03;;;;;;;;;8.50;8.50;;;;;;;;4948562;28;45492;-69
2023/06/03 01:17:35;;;;;;;;;12.00;11.25;;;;;;;;4943891;28;45475;-68
2023/06/03 01:20:01;;;;;;;;;6.75;6.25;;;;;;;;4955783;28;46204;-68
2023/06/03 01:22:26;;;;;;;;;12.00;9.50;;;;;;;;4958730;28;45386;-68
2023/06/03 01:25:05;;;;;;;;;9.50;8.75;;;;;;;;4959071;28;45337;-69
2023/06/03 01:27:30;;;;;;;;;10.25;10.25;;;;;;;;4958885;28;45449;-69
2023/06/03 01:29:55;;;;;;;;;12.75;11.75;;;;;;;;4958706;28;46952;-68
2023/06/03 01:32:21;;;;;;;;;10.00;9.00;;;;;;;;4958807;28;45459;-68
2023/06/03 01:34:46;;;;;;;;;6.25;5.25;;;;;;;;4959069;28;45579;-69
2023/06/03 01:37:11;;;;;;;;;11.25;10.00;;;;;;;;4958807;28;45502;-69
2023/06/03 01:39:39;;;;;;;;;12.25;10.75;;;;;;;;4958267;28;47079;-69
2023/06/03 01:42:05;;;;;;;;;14.25;10.25;;;;;;;;4957773;28;45430;-68
2023/06/03 01:44:30;;;;;;;;;10.75;10.00;;;;;;;;4958338;28;45347;-69
2023/06/03 01:46:55;;;;;;;;;11.25;11.25;;;;;;;;4958542;28;45286;-68
2023/06/03 01:49:20;;;;;;;;;13.50;11.25;;;;;;;;4958495;28;47022;-69
2023/06/03 01:51:46;;;;;;;;;13.00;10.50;;;;;;;;4958352;28;45369;-69
2023/06/03 01:54:11;;;;;;;;;11.75;11.50;;;;;;;;4958597;28;45536;-69
2023/06/03 01:56:36;;;;;;;;;11.50;11.50;;;;;;;;4957944;28;45425;-69
2023/06/03 01:59:01;;;;;;;;;14.25;13.00;;;;;;;;4957927;28;47117;-69
2023/06/03 02:01:27;;;;;;;;;15.75;12.50;;;;;;;;4958357;28;45438;-69
2023/06/03 02:03:52;;;;;;;;;10.00;9.25;;;;;;;;4958541;28;45455;-69
2023/06/03 02:06:17;;;;;;;;;15.00;12.25;;;;;;;;4959828;28;45565;-69
2023/06/03 02:08:42;;;;;;;;;9.00;9.00;;;;;;;;4976934;28;46127;-69
2023/06/03 02:11:07;;;;;;;;;11.50;9.25;;;;;;;;4976558;28;45385;-69
2023/06/03 02:13:33;;;;;;;;;10.25;9.50;;;;;;;;4970261;28;45381;-69
2023/06/03 02:15:58;;;;;;;;;14.50;11.25;;;;;;;;4937996;28;45358;-69
2023/06/03 02:18:23;;;;;;;;;16.00;12.00;;;;;;;;4938637;28;45374;-69
2023/06/03 02:20:48;;;;;;;;;9.75;9.75;;;;;;;;4946162;28;45544;-68
2023/06/03 02:23:13;;;;;;;;;14.50;11.50;;;;;;;;4957720;28;45435;-69
2023/06/03 02:25:39;;;;;;;;;10.25;10.00;;;;;;;;4958030;28;45389;-69
2023/06/03 02:28:04;;;;;;;;;12.75;8.50;;;;;;;;4956454;28;48164;-69
2023/06/03 02:30:29;;;;;;;;;10.75;10.75;;;;;;;;4958083;28;45545;-69
2023/06/03 02:32:55;;;;;;;;;16.00;12.50;;;;;;;;4956890;28;45356;-68
2023/06/03 02:35:20;;;;;;;;;13.00;11.75;;;;;;;;4957631;28;45631;-68
2023/06/03 02:37:45;;;;;;;;;11.75;11.50;;;;;;;;4957725;28;46026;-68
2023/06/03 02:40:10;;;;;;;;;9.50;9.50;;;;;;;;4957283;28;45436;-69
2023/06/03 02:42:36;;;;;;;;;14.00;11.75;;;;;;;;4957826;28;45542;-69
2023/06/03 02:45:02;;;;;;;;;13.75;9.75;;;;;;;;4957965;28;45416;-68
2023/06/03 02:47:27;;;;;;;;;15.00;12.50;;;;;;;;4957060;28;46404;-69
2023/06/03 02:49:52;;;;;;;;;11.50;10.75;;;;;;;;4957865;28;45444;-68
2023/06/03 02:52:18;;;;;;;;;13.25;11.50;;;;;;;;4957780;28;45373;-68
2023/06/03 02:54:43;;;;;;;;;15.00;14.00;;;;;;;;4957701;28;45527;-68
2023/06/03 02:57:08;;;;;;;;;12.25;10.75;;;;;;;;4957147;28;46323;-68
2023/06/03 02:59:33;;;;;;;;;13.75;12.75;;;;;;;;4957068;28;45477;-68
2023/06/03 03:01:58;;;;;;;;;16.50;14.00;;;;;;;;4957483;28;45488;-69
2023/06/03 03:04:26;;;;;;;;;12.75;12.75;;;;;;;;4957663;28;45385;-69
2023/06/03 03:06:54;;;;;;;;;10.75;10.75;;;;;;;;4957401;28;46255;-68
2023/06/03 03:09:19;;;;;;;;;13.25;12.75;;;;;;;;4956795;28;45470;-68
2023/06/03 03:11:44;;;;;;;;;14.00;13.00;;;;;;;;4957359;28;45365;-68
2023/06/03 03:14:09;;;;;;;;;12.50;9.75;;;;;;;;4957478;28;45466;-68
2023/06/03 03:16:35;;;;;;;;;22.00;13.00;;;;;;;;4955700;28;47754;-68
2023/06/03 03:19:00;;;;;;;;;15.25;11.25;;;;;;;;4957132;28;45535;-68
2023/06/03 03:21:25;;;;;;;;;8.50;8.50;;;;;;;;4944600;28;45353;-68
2023/06/03 03:23:51;;;;;;;;;10.75;10.75;;;;;;;;4937343;28;45482;-68
2023/06/03 03:26:19;;;;;;;;;11.00;10.00;;;;;;;;4920496;28;46301;-68
2023/06/03 03:28:44;;;;;;;;;12.50;10.75;;;;;;;;4934982;28;45350;-68
2023/06/03 03:31:12;;;;;;;;;15.25;14.50;;;;;;;;4953913;28;45788;-68
2023/06/03 03:33:37;;;;;;;;;16.00;12.50;;;;;;;;4957038;28;45704;-68
2023/06/03 03:36:09;;;;;;;;;12.00;11.00;;;;;;;;4956585;28;45492;-68
2023/06/03 03:38:36;;;;;;;;;19.25;14.00;;;;;;;;4957067;28;45394;-68
2023/06/03 03:41:02;;;;;;;;;17.25;14.25;;;;;;;;4956792;28;45246;-68
2023/06/03 03:43:27;;;;;;;;;11.25;8.25;;;;;;;;4956744;28;45409;-68
2023/06/03 03:45:52;;;;;;;;;11.50;11.50;;;;;;;;4956806;28;46332;-68
2023/06/03 03:48:20;;;;;;;;;13.25;11.75;;;;;;;;4956540;28;45432;-69
2023/06/03 03:50:45;;;;;;;;;12.00;12.00;;;;;;;;4956639;28;45384;-69
2023/06/03 03:53:12;;;;;;;;;12.75;12.75;;;;;;;;4956424;28;45421;-68
2023/06/03 03:55:39;;;;;;;;;12.00;10.50;;;;;;;;4956909;28;46725;-68
2023/06/03 03:58:12;;;;;;;;;13.00;13.00;;;;;;;;4956342;28;45377;-68
2023/06/03 04:00:39;;;;;;;;;13.25;12.00;;;;;;;;4956045;28;45369;-68
2023/06/03 04:03:05;;;;;;;;;14.75;12.75;;;;;;;;4956707;28;45349;-68
2023/06/03 04:05:30;;;;;;;;;12.25;11.75;;;;;;;;4955830;28;45561;-68
2023/06/03 04:07:56;;;;;;;;;11.50;11.50;;;;;;;;4964815;28;45446;-68
2023/06/03 04:10:22;;;;;;;;;13.25;10.50;;;;;;;;4975894;28;45415;-68
2023/06/03 04:12:48;;;;;;;;;13.25;11.25;;;;;;;;4976075;28;45447;-68
2023/06/03 04:15:16;;;;;;;;;14.25;11.25;;;;;;;;4974070;28;46435;-69
2023/06/03 04:17:44;;;;;;;;;14.00;11.75;;;;;;;;4965657;28;45448;-68
2023/06/03 04:20:28;;;;;;;;;15.00;12.00;;;;;;;;4938668;28;45482;-68
2023/06/03 04:22:53;;;;;;;;;13.00;11.00;;;;;;;;4955582;28;45282;-68
2023/06/03 04:25:18;;;;;;;;;17.75;15.00;;;;;;;;4955750;28;46078;-68
2023/06/03 04:27:44;;;;;;;;;18.50;15.50;;;;;;;;4946018;28;45430;-68
2023/06/03 04:30:09;;;;;;;;;14.00;14.00;;;;;;;;4943770;28;45421;-68
2023/06/03 04:32:34;;;;;;;;;13.25;13.00;;;;;;;;4955862;28;45314;-68
2023/06/03 04:34:59;;;;;;;;;16.50;15.75;;;;;;;;4955500;28;45448;-68
2023/06/03 04:37:26;;;;;;;;;25.00;18.75;;;;;;;;4955768;28;45392;-69
2023/06/03 04:39:51;;;;;;;;;19.25;15.50;;;;;;;;4955102;28;45375;-68
2023/06/03 04:42:17;;;;;;;;;18.25;16.00;;;;;;;;4955697;28;45322;-68
2023/06/03 04:44:42;;;;;;;;;13.00;11.00;;;;;;;;4955488;28;45457;-68
2023/06/03 04:47:11;;;;;;;;;13.50;13.50;;;;;;;;4955547;28;45477;-68
2023/06/03 04:49:39;;;;;;;;;15.75;14.50;;;;;;;;4955963;28;45531;-68
2023/06/03 04:52:09;;;;;;;;;19.00;15.00;;;;;;;;4956008;28;45342;-68
2023/06/03 04:54:34;;;;;;;;;16.50;14.50;;;;;;;;4955956;28;45512;-68
2023/06/03 04:57:00;;;;;;;;;15.75;15.25;;;;;;;;4955636;28;45439;-68
2023/06/03 04:59:25;;;;;;;;;17.25;16.25;;;;;;;;4955579;28;45345;-68
2023/06/03 05:01:50;;;;;;;;;19.25;15.25;;;;;;;;4956176;28;45405;-68
2023/06/03 05:04:19;;;;;;;;;16.25;14.25;;;;;;;;4955565;28;46057;-68
2023/06/03 05:06:44;;;;;;;;;12.25;11.50;;;;;;;;4955796;28;45371;-69
2023/06/03 05:09:10;;;;;;;;;13.75;12.00;;;;;;;;4955815;28;45250;-68
2023/06/03 05:11:35;;;;;;;;;15.50;12.25;;;;;;;;4955680;28;45418;-68
2023/06/03 05:14:01;;;;;;;;;13.75;12.50;;;;;;;;4954455;28;48002;-67
2023/06/03 05:16:26;;;;;;;;;11.00;10.75;;;;;;;;4955602;28;45426;-67
2023/06/03 05:18:51;;;;;;;;;12.25;12.00;;;;;;;;4937995;28;45286;-66
2023/06/03 05:21:19;;;;;;;;;13.75;13.00;;;;;;;;4944364;28;45295;-67
2023/06/03 05:23:44;;;;;;;;;14.50;13.00;;;;;;;;4955092;28;46277;-66
2023/06/03 05:26:10;;;;;;;;;14.25;14.25;;;;;;;;4955529;28;45479;-66
2023/06/03 05:28:35;;;;;;;;;16.75;14.00;;;;;;;;4955343;28;45433;-67
2023/06/03 05:31:00;;;;;;;;;13.25;11.25;;;;;;;;4955656;28;45452;-66
2023/06/03 05:33:32;;;;;;;;;14.75;13.50;;;;;;;;4955322;28;46529;-67
2023/06/03 05:35:57;;;;;;;;;13.25;11.50;;;;;;;;4955269;28;45490;-68
2023/06/03 05:38:23;;;;;;;;;13.25;12.75;;;;;;;;4955163;28;45409;-67
2023/06/03 05:40:49;;;;;;;;;11.50;10.00;;;;;;;;4955281;28;45424;-67
2023/06/03 05:43:17;;;;;;;;;15.00;13.50;;;;;;;;4955007;28;47099;-67
2023/06/03 05:45:43;;;;;;;;;13.25;12.50;;;;;;;;4953682;28;45346;-68
2023/06/03 05:48:09;;;;;;;;;12.25;11.25;;;;;;;;4961927;28;45523;-67
2023/06/03 05:50:38;;;;;;;;;12.50;10.75;;;;;;;;4954984;28;45484;-67
2023/06/03 05:53:03;;;;;;;;;19.00;12.25;;;;;;;;4956875;28;46572;-67
2023/06/03 05:55:29;;;;;;;;;11.00;10.75;;;;;;;;4958030;28;45436;-68
2023/06/03 05:57:54;;;;;;;;;8.75;7.75;;;;;;;;4957871;28;45664;-68
2023/06/03 06:00:20;;;;;;;;;13.25;11.25;;;;;;;;4958304;28;45432;-68
2023/06/03 06:02:45;;;;;;;;;14.00;13.00;;;;;;;;4943407;28;46507;-68
2023/06/03 06:05:10;;;;;;;;;17.25;13.50;;;;;;;;4937880;28;45484;-66
2023/06/03 06:07:36;;;;;;;;;12.75;12.75;;;;;;;;4938738;28;45426;-68
2023/06/03 06:10:01;;;;;;;;;13.25;11.25;;;;;;;;4940513;28;45551;-67
2023/06/03 06:12:26;;;;;;;;;12.75;12.75;;;;;;;;4947268;28;45547;-67
2023/06/03 06:14:51;;;;;;;;;13.00;11.50;;;;;;;;4953630;28;45646;-67
2023/06/03 06:17:17;;;;;;;;;10.50;10.00;;;;;;;;4957794;28;46005;-67
2023/06/03 06:19:42;;;;;;;;;8.75;8.00;;;;;;;;4957045;28;45409;-67
2023/06/03 06:22:08;;;;;;;;;12.25;12.00;;;;;;;;4939164;28;45590;-68
2023/06/03 06:24:33;;;;;;;;;16.25;12.25;;;;;;;;4938453;28;45414;-67
2023/06/03 06:26:58;;;;;;;;;10.25;9.00;;;;;;;;4938849;28;45410;-67
2023/06/03 06:29:23;;;;;;;;;13.00;11.75;;;;;;;;4943459;28;45529;-67
2023/06/03 06:31:51;;;;;;;;;14.00;13.00;;;;;;;;4956901;28;45474;-67
2023/06/03 06:34:17;;;;;;;;;9.50;9.50;;;;;;;;4957896;28;45374;-67
2023/06/03 06:36:44;;;;;;;;;11.25;11.25;;;;;;;;4957840;28;45274;-68
2023/06/03 06:39:28;;;;;;;;;11.50;10.50;;;;;;;;4957801;28;45318;-68
2023/06/03 06:41:54;;;;;;;;;10.00;8.25;;;;;;;;4957165;28;46279;-68
2023/06/03 06:44:19;;;;;;;;;11.25;10.00;;;;;;;;4957369;28;45447;-67
2023/06/03 06:46:47;;;;;;;;;12.75;11.75;;;;;;;;4957357;28;45316;-67
2023/06/03 06:49:12;;;;;;;;;11.25;11.25;;;;;;;;4956074;28;45376;-68
2023/06/03 06:51:37;;;;;;;;;12.75;11.50;;;;;;;;4956567;28;46198;-67
2023/06/03 06:54:03;;;;;;;;;14.50;13.50;;;;;;;;4957519;28;45362;-68
2023/06/03 06:56:28;;;;;;;;;10.00;8.75;;;;;;;;4957171;28;45467;-69
2023/06/03 06:58:53;;;;;;;;;10.00;9.00;;;;;;;;4956081;28;45500;-68
2023/06/03 07:01:18;;;;;;;;;9.50;8.00;;;;;;;;4957291;28;45703;-67
2023/06/03 07:03:44;;;;;;;;;14.00;11.25;;;;;;;;4956505;28;45439;-67
2023/06/03 07:06:10;;;;;;;;;10.00;8.25;;;;;;;;4957356;28;45369;-68
2023/06/03 07:08:35;;;;;;;;;12.00;10.25;;;;;;;;4957064;28;45322;-67
2023/06/03 07:11:02;;;;;;;;;12.25;9.50;;;;;;;;4957048;28;46506;-68
2023/06/03 07:13:28;;;;;;;;;8.00;7.75;;;;;;;;4957428;28;45390;-68
2023/06/03 07:15:53;;;;;;;;;10.25;8.25;;;;;;;;4955806;28;45442;-67
2023/06/03 07:18:19;;;;;;;;;9.00;9.00;;;;;;;;4957154;28;45397;-67
2023/06/03 07:20:46;;;;;;;;;13.25;11.75;;;;;;;;4956419;28;45490;-67
2023/06/03 07:23:22;;;;;;;;;8.75;8.50;;;;;;;;4956686;28;45475;-68
2023/06/03 07:25:49;;;;;;;;;9.00;8.50;;;;;;;;4956954;28;45331;-68
2023/06/03 07:28:15;;;;;;;;;11.50;10.50;;;;;;;;4956814;28;45259;-67
2023/06/03 07:30:41;;;;;;;;;16.25;11.00;;;;;;;;4956816;28;46098;-67
2023/06/03 07:33:09;;;;;;;;;8.50;6.50;;;;;;;;4956745;28;45377;-67
2023/06/03 07:35:35;;;;;;;;;14.00;12.50;;;;;;;;4956529;28;45488;-70
2023/06/03 07:38:01;;;;;;;;;8.00;8.00;;;;;;;;4956708;28;45377;-71
2023/06/03 07:40:32;;;;;;;;;10.00;10.00;;;;;;;;4956726;28;47228;-71
2023/06/03 07:42:57;;;;;;;;;11.75;9.00;;;;;;;;4956703;28;45262;-70
2023/06/03 07:45:25;;;;;;;;;12.25;11.25;;;;;;;;4956919;28;45369;-70
2023/06/03 07:47:50;;;;;;;;;8.75;7.75;;;;;;;;4956442;28;45350;-70
2023/06/03 07:50:19;;;;;;;;;7.50;6.25;;;;;;;;4956672;28;45455;-70
2023/06/03 07:52:44;;;;;;;;;8.00;8.00;;;;;;;;4956295;28;45334;-70
2023/06/03 07:55:10;;;;;;;;;10.75;9.75;;;;;;;;4956641;28;45342;-70
2023/06/03 07:57:38;;;;;;;;;11.00;9.00;;;;;;;;4956572;28;45406;-72
2023/06/03 08:00:04;;;;;;;;;10.50;10.00;;;;;;;;4954981;28;48864;-70
2023/06/03 08:02:30;;;;;;;;;11.50;11.00;;;;;;;;4956418;28;45574;-70
2023/06/03 08:05:00;;;;;;;;;9.50;8.00;;;;;;;;4956676;28;45481;-71
2023/06/03 08:07:27;;;;;;;;;11.50;8.75;;;;;;;;4956599;28;45413;-69
2023/06/03 08:09:52;;;;;;;;;10.50;10.50;;;;;;;;4954528;28;48559;-69
2023/06/03 08:12:22;;;;;;;;;9.25;8.75;;;;;;;;4955033;28;45414;-71
2023/06/03 08:14:47;;;;;;;;;8.00;8.00;;;;;;;;4955817;28;45464;-70
2023/06/03 08:17:13;;;;;;;;;11.75;8.50;;;;;;;;4955709;28;45508;-70
2023/06/03 08:19:41;;;;;;;;;8.50;8.50;;;;;;;;4956184;28;46220;-70
2023/06/03 08:22:17;;;;;;;;;13.75;12.25;;;;;;;;4955999;28;45423;-70
2023/06/03 08:24:43;;;;;;;;;17.25;11.50;;;;;;;;4955933;28;45450;-70
2023/06/03 08:27:08;;;;;;;;;9.00;8.00;;;;;;;;4955732;28;45345;-70
2023/06/03 08:29:33;;;;;;;;;9.75;8.75;;;;;;;;4956517;28;45644;-70
2023/06/03 08:31:59;;;;;;;;;8.75;8.00;;;;;;;;4956076;28;45323;-71
2023/06/03 08:34:24;;;;;;;;;8.00;7.25;;;;;;;;4955220;28;45255;-70
2023/06/03 08:36:49;;;;;;;;;9.00;9.00;;;;;;;;4956390;28;45370;-70
2023/06/03 08:39:15;;;;;;;;;9.00;7.75;;;;;;;;4956403;28;45370;-70
2023/06/03 08:41:41;;;;;;;;;10.25;8.50;;;;;;;;4955879;28;45409;-71
2023/06/03 08:44:18;;;;;;;;;10.00;9.00;;;;;;;;4955964;28;45441;-71
2023/06/03 08:46:50;;;;;;;;;6.75;6.25;;;;;;;;4954567;28;45494;-71
2023/06/03 08:49:24;;;;;;;;;8.50;5.00;;;;;;;;4955645;28;45509;-71
2023/06/03 08:51:54;;;;;;;;;12.50;7.75;;;;;;;;4955423;28;45433;-70
2023/06/03 08:54:21;;;;;;;;;10.25;10.25;;;;;;;;4956262;28;45436;-70
2023/06/03 08:56:56;;;;;;;;;6.75;6.75;;;;;;;;4955716;28;45640;-70
2023/06/03 08:59:23;;;;;;;;;6.75;5.25;;;;;;;;4955525;28;46584;-70
2023/06/03 09:01:52;;;;;;;;;5.00;5.00;;;;;;;;4955672;28;45410;-70
2023/06/03 09:04:18;;;;;;;;;6.75;6.25;;;;;;;;4955822;28;45437;-70
2023/06/03 09:06:44;;;;;;;;;7.75;7.00;;;;;;;;4956009;28;45417;-69
2023/06/03 09:09:10;;;;;;;;;0.50;0.50;;;;;;;;4954454;28;47911;-69
2023/06/03 09:11:35;;;;;;;;;6.00;5.50;;;;;;;;4955465;28;45359;-70
2023/06/03 09:14:01;;;;;;;;;8.00;7.50;;;;;;;;4955742;28;45502;-69
2023/06/03 09:16:26;;;;;;;;;7.00;7.00;;;;;;;;4955736;28;45538;-70
2023/06/03 09:18:52;;;;;;;;;8.50;7.00;;;;;;;;4955911;28;45430;-70
2023/06/03 09:21:17;;;;;;;;;7.00;5.00;;;;;;;;4947580;28;45476;-71
2023/06/03 09:23:43;;;;;;;;;7.25;6.50;;;;;;;;4951642;28;45324;-70
2023/06/03 09:26:08;;;;;;;;;6.75;6.75;;;;;;;;4937941;28;45600;-70
2023/06/03 09:28:36;;;;;;;;;5.75;5.75;;;;;;;;4973238;28;45419;-70
2023/06/03 09:31:03;;;;;;;;;4.25;4.25;;;;;;;;4958089;28;45477;-70
2023/06/03 09:33:29;;;;;;;;;4.25;4.25;;;;;;;;4958085;28;45300;-71
2023/06/03 09:36:11;;;;;;;;;7.00;7.00;;;;;;;;4957714;28;45663;-70
2023/06/03 09:38:56;;;;;;;;;3.25;3.25;;;;;;;;4942670;28;45395;-71
2023/06/03 09:41:21;;;;;;;;;7.00;6.00;;;;;;;;4939100;28;45409;-71
2023/06/03 09:43:54;;;;;;;;;7.00;3.50;;;;;;;;4939212;28;45421;-70
2023/06/03 09:46:19;;;;;;;;;5.50;5.50;;;;;;;;4939347;28;45419;-71
2023/06/03 09:48:44;;;;;;;;;4.50;4.50;;;;;;;;4953820;28;47266;-71
2023/06/03 09:51:09;;;;;;;;;5.25;5.00;;;;;;;;4958564;28;45416;-71
2023/06/03 09:53:35;;;;;;;;;6.00;5.25;;;;;;;;4958552;28;45432;-71
2023/06/03 09:56:19;;;;;;;;;4.00;2.75;;;;;;;;4940533;28;45574;-70
2023/06/03 09:58:45;;;;;;;;;4.75;4.75;;;;;;;;4943360;28;45671;-71
2023/06/03 10:01:11;;;;;;;;;5.50;4.50;;;;;;;;4958206;28;45419;-72
2023/06/03 10:03:36;;;;;;;;;7.75;7.50;;;;;;;;4959168;28;45731;-72
2023/06/03 10:06:17;;;;;;;;;5.00;5.00;;;;;;;;4958116;28;45476;-71
2023/06/03 10:08:43;;;;;;;;;7.50;5.75;;;;;;;;4957882;28;45527;-69
2023/06/03 10:11:09;;;;;;;;;7.00;5.75;;;;;;;;4957989;28;45401;-71
2023/06/03 10:13:34;;;;;;;;;8.00;6.50;;;;;;;;4957852;28;45349;-71
2023/06/03 10:16:01;;;;;;;;;6.00;6.00;;;;;;;;4959778;28;45504;-71
2023/06/03 10:18:37;;;;;;;;;4.75;4.75;;;;;;;;4946774;28;46308;-72
2023/06/03 10:21:05;;;;;;;;;5.75;5.75;;;;;;;;4942614;28;45491;-71
2023/06/03 10:23:31;;;;;;;;;7.25;6.25;;;;;;;;4956614;28;45576;-71
2023/06/03 10:25:56;;;;;;;;;5.50;3.75;;;;;;;;4936220;28;45527;-72
2023/06/03 10:28:23;;;;;;;;;5.25;5.00;;;;;;;;4951955;28;47034;-70
2023/06/03 10:30:49;;;;;;;;;5.75;5.25;;;;;;;;4943540;28;45956;-70
2023/06/03 10:33:15;;;;;;;;;5.75;5.75;;;;;;;;4954111;28;45448;-71
2023/06/03 10:35:41;;;;;;;;;4.50;4.50;;;;;;;;4943435;28;45703;-70
2023/06/03 10:38:07;;;;;;;;;6.25;5.75;;;;;;;;4947823;28;46113;-72
2023/06/03 10:40:33;;;;;;;;;7.75;6.75;;;;;;;;4950468;28;45481;-71
2023/06/03 10:42:58;;;;;;;;;6.00;5.00;;;;;;;;4940789;28;45533;-72
2023/06/03 10:45:25;;;;;;;;;4.00;4.00;;;;;;;;4952523;28;45377;-72
2023/06/03 10:47:52;;;;;;;;;8.00;6.00;;;;;;;;4938879;28;45501;-72
2023/06/03 10:50:17;;;;;;;;;8.25;5.75;;;;;;;;4948009;28;45334;-72
2023/06/03 10:52:51;;;;;;;;;5.50;5.50;;;;;;;;4943658;28;45391;-69
2023/06/03 10:55:25;;;;;;;;;5.25;5.25;;;;;;;;4948922;28;45449;-72
2023/06/03 10:58:10;;;;;;;;;3.75;3.00;;;;;;;;4952796;28;45530;-71
2023/06/03 11:00:55;;;;;;;;;5.00;3.25;;;;;;;;4944336;28;45378;-71
2023/06/03 11:03:21;;;;;;;;;6.75;5.00;;;;;;;;4951953;28;45306;-71
2023/06/03 11:05:47;;;;;;;;;4.75;4.75;;;;;;;;4938351;28;45677;-71
2023/06/03 11:08:12;;;;;;;;;6.00;5.25;;;;;;;;4946836;28;46219;-71
2023/06/03 11:10:39;;;;;;;;;5.50;5.50;;;;;;;;4951207;28;45438;-72
2023/06/03 11:13:05;;;;;;;;;5.00;5.00;;;;;;;;4946468;28;45477;-73
2023/06/03 11:15:50;;;;;;;;;5.00;5.00;;;;;;;;4941295;28;45396;-73
2023/06/03 11:18:16;;;;;;;;;5.75;4.75;;;;;;;;4943957;28;45304;-73
2023/06/03 11:20:41;;;;;;;;;9.25;5.50;;;;;;;;4949362;28;45334;-72
2023/06/03 11:23:06;;;;;;;;;7.00;5.25;;;;;;;;4955859;28;45473;-72
2023/06/03 11:25:32;;;;;;;;;5.75;5.00;;;;;;;;4941204;28;45526;-71
2023/06/03 11:28:16;;;;;;;;;4.75;4.75;;;;;;;;4956152;28;46962;-70
2023/06/03 11:30:57;;;;;;;;;5.50;5.25;;;;;;;;4945095;28;45497;-70
2023/06/03 11:33:22;;;;;;;;;8.00;7.00;;;;;;;;4948288;28;45371;-70
2023/06/03 11:35:47;;;;;;;;;4.50;4.50;;;;;;;;4943047;28;45482;-76
2023/06/03 11:38:12;;;;;;;;;6.50;4.75;;;;;;;;4947323;28;45309;-72
2023/06/03 11:40:41;;;;;;;;;5.00;5.00;;;;;;;;4949779;28;45348;-74
2023/06/03 11:43:07;;;;;;;;;5.50;5.50;;;;;;;;4940355;28;45414;-73
2023/06/03 11:45:33;;;;;;;;;6.00;6.00;;;;;;;;4951035;28;45559;-71
2023/06/03 11:48:02;;;;;;;;;4.50;4.00;;;;;;;;4946339;28;45522;-70
2023/06/03 11:50:30;;;;;;;;;5.25;5.25;;;;;;;;4947735;28;45470;-70
2023/06/03 11:52:56;;;;;;;;;6.75;6.75;;;;;;;;4946300;28;45415;-68
2023/06/03 11:55:25;;;;;;;;;5.25;5.25;;;;;;;;4946212;28;45528;-70
2023/06/03 11:57:50;;;;;;;;;5.75;5.75;;;;;;;;4945334;28;45586;-69
2023/06/03 12:00:17;;;;;;;;;7.00;6.50;;;;;;;;4947449;28;45421;-69
2023/06/03 12:02:45;;;;;;;;;6.00;6.00;;;;;;;;4950130;28;45440;-73
2023/06/03 12:05:11;;;;;;;;;4.25;4.25;;;;;;;;4952510;28;45561;-70
2023/06/03 12:07:36;;;;;;;;;5.50;5.50;;;;;;;;4940669;28;45361;-70
2023/06/03 12:10:02;;;;;;;;;6.75;6.00;;;;;;;;4948129;28;45389;-73
2023/06/03 12:12:27;;;;;;;;;7.50;6.25;;;;;;;;4948165;28;45766;-71
2023/06/03 12:14:52;;;;;;;;;6.00;5.50;;;;;;;;4941394;28;45354;-72
2023/06/03 12:17:19;;;;;;;;;6.00;4.00;;;;;;;;4939716;28;45499;-73
2023/06/03 12:19:46;;;;;;;;;4.75;3.75;;;;;;;;4948818;28;45404;-74
2023/06/03 12:22:11;;;;;;;;;10.75;8.75;;;;;;;;4952698;28;45481;-72
2023/06/03 12:24:39;;;;;;;;;4.75;4.75;;;;;;;;4945001;28;45488;-70
2023/06/03 12:27:14;;;;;;;;;5.00;4.75;;;;;;;;4944609;28;46295;-71
2023/06/03 12:29:58;;;;;;;;;5.00;5.00;;;;;;;;4944695;28;45521;-69
2023/06/03 12:32:25;;;;;;;;;7.50;5.00;;;;;;;;4947150;28;45317;-68
2023/06/03 12:34:51;;;;;;;;;7.00;6.25;;;;;;;;4940415;28;45481;-67
2023/06/03 12:37:29;;;;;;;;;7.25;5.50;;;;;;;;4954031;28;47095;-70
2023/06/03 12:39:56;;;;;;;;;7.00;5.00;;;;;;;;4953956;28;45608;-68
2023/06/03 12:42:33;;;;;;;;;5.25;5.00;;;;;;;;4944744;28;45660;-70
2023/06/03 12:44:58;;;;;;;;;10.25;7.00;;;;;;;;4951434;28;45406;-68
2023/06/03 12:47:24;;;;;;;;;7.00;7.00;;;;;;;;4959308;28;46336;-68
2023/06/03 12:50:05;;;;;;;;;7.25;6.25;;;;;;;;4942442;28;45374;-69
2023/06/03 12:52:36;;;;;;;;;7.25;6.25;;;;;;;;4943422;28;45239;-69
2023/06/03 12:55:02;;;;;;;;;7.50;5.00;;;;;;;;4951906;28;45409;-69
2023/06/03 12:57:27;;;;;;;;;5.00;5.00;;;;;;;;4939244;28;46352;-69
2023/06/03 12:59:58;;;;;;;;;6.00;6.00;;;;;;;;4948508;28;45472;-71
2023/06/03 13:02:24;;;;;;;;;5.25;5.00;;;;;;;;4944685;28;45607;-71
2023/06/03 13:04:49;;;;;;;;;6.75;5.50;;;;;;;;4947813;28;45468;-70
2023/06/03 13:07:14;;;;;;;;;6.25;6.25;;;;;;;;4948065;28;45527;-71
2023/06/03 13:09:39;;;;;;;;;3.00;3.00;;;;;;;;4948727;28;45429;-70
2023/06/03 13:12:04;;;;;;;;;5.75;4.00;;;;;;;;4950473;28;45458;-72
2023/06/03 13:14:30;;;;;;;;;3.00;3.00;;;;;;;;4951319;28;45354;-70
2023/06/03 13:16:55;;;;;;;;;4.75;4.00;;;;;;;;4943035;28;46676;-70
2023/06/03 13:19:20;;;;;;;;;5.25;4.25;;;;;;;;4954450;28;45406;-72
2023/06/03 13:21:45;;;;;;;;;4.50;4.50;;;;;;;;4950661;28;45470;-69
2023/06/03 13:24:11;;;;;;;;;6.50;6.50;;;;;;;;4954327;28;45508;-70
2023/06/03 13:26:36;;;;;;;;;4.00;4.00;;;;;;;;4946875;28;45398;-70
2023/06/03 13:29:01;;;;;;;;;4.00;4.00;;;;;;;;4947803;28;45406;-69
2023/06/03 13:31:26;;;;;;;;;4.00;4.00;;;;;;;;4948040;28;45439;-69
2023/06/03 13:33:52;;;;;;;;;6.00;5.00;;;;;;;;4948210;28;45430;-69
2023/06/03 13:36:17;;;;;;;;;3.75;3.75;;;;;;;;4948231;28;45420;-69
2023/06/03 13:38:42;;;;;;;;;6.50;5.25;;;;;;;;4951374;28;45338;-68
2023/06/03 13:41:07;;;;;;;;;5.00;4.00;;;;;;;;4942017;28;45575;-70
2023/06/03 13:43:32;;;;;;;;;5.00;3.75;;;;;;;;4949562;28;45494;-72
2023/06/03 13:45:59;;;;;;;;;6.25;5.75;;;;;;;;4947894;28;45449;-72
2023/06/03 13:48:24;;;;;;;;;2.25;2.00;;;;;;;;4946630;28;45473;-72
2023/06/03 13:50:49;;;;;;;;;3.75;3.75;;;;;;;;4953055;28;45283;-71
2023/06/03 13:53:14;;;;;;;;;6.00;4.50;;;;;;;;4940549;28;45213;-71
2023/06/03 13:55:39;;;;;;;;;4.50;4.25;;;;;;;;4948804;28;45440;-72
2023/06/03 13:58:05;;;;;;;;;6.25;5.25;;;;;;;;4946916;28;45342;-72
2023/06/03 14:00:30;;;;;;;;;4.50;4.00;;;;;;;;4949507;28;45468;-72
2023/06/03 14:02:55;;;;;;;;;3.25;3.25;;;;;;;;4942857;28;45591;-72
2023/06/03 14:05:20;;;;;;;;;5.75;5.75;;;;;;;;4954409;28;47031;-72
2023/06/03 14:07:45;;;;;;;;;5.00;5.00;;;;;;;;4946156;28;45254;-72
2023/06/03 14:10:11;;;;;;;;;3.00;3.00;;;;;;;;4946313;28;45377;-71
2023/06/03 14:12:36;;;;;;;;;5.50;4.25;;;;;;;;4944355;28;45330;-69
2023/06/03 14:15:02;;;;;;;;;4.00;4.00;;;;;;;;4952635;28;48118;-71
2023/06/03 14:17:27;;;;;;;;;6.00;4.00;;;;;;;;4941604;28;45374;-72
2023/06/03 14:19:53;;;;;;;;;2.25;2.00;;;;;;;;4950847;28;45414;-71
2023/06/03 14:22:19;;;;;;;;;3.00;3.00;;;;;;;;4955136;28;45402;-72
2023/06/03 14:24:46;;;;;;;;;3.25;3.25;;;;;;;;4948120;28;45595;-71
2023/06/03 14:27:11;;;;;;;;;5.50;5.00;;;;;;;;4954893;28;45473;-71
2023/06/03 14:29:36;;;;;;;;;5.50;4.75;;;;;;;;4953059;28;45329;-71